sensor_id;sensor_type;location;lat;lon;timestamp;temperature;humidity
29813;DHT22;16707;48.106;11.548;2023-08-30T00:01:04;12.50;99.90
29813;DHT22;16707;48.106;11.548;2023-08-30T00:03:31;12.60;99.90
29813;DHT22;16707;48.106;11.548;2023-08-30T00:06:02;12.60;99.90
29813;DHT22;16707;48.106;11.548;2023-08-30T00:08:30;12.50;99.90
29813;DHT22;16707;48.106;11.548;2023-08-30T00:10:58;12.50;99.90
29813;DHT22;16707;48.106;11.548;2023-08-30T00:13:25;12.50;99.90
29813;DHT22;16707;48.106;11.548;2023-08-30T00:15:52;12.60;99.90
29813;DHT22;16707;48.106;11.548;2023-08-30T00:18:19;12.60;99.90
29813;DHT22;16707;48.106;11.548;2023-08-30T00:20:46;12.50;99.90
29813;DHT22;16707;48.106;11.548;2023-08-30T00:23:13;12.60;99.90
29813;DHT22;16707;48.106;11.548;2023-08-30T00:25:42;12.50;99.90
29813;DHT22;16707;48.106;11.548;2023-08-30T00:28:10;12.50;99.90
29813;DHT22;16707;48.106;11.548;2023-08-30T00:30:37;12.60;99.90
29813;DHT22;16707;48.106;11.548;2023-08-30T00:33:04;12.60;99.90
29813;DHT22;16707;48.106;11.548;2023-08-30T00:35:31;12.50;99.90
29813;DHT22;16707;48.106;11.548;2023-08-30T00:37:58;12.60;99.90
29813;DHT22;16707;48.106;11.548;2023-08-30T00:40:25;12.60;99.90
29813;DHT22;16707;48.106;11.548;2023-08-30T00:42:52;12.60;99.90
29813;DHT22;16707;48.106;11.548;2023-08-30T00:45:20;12.60;99.90
29813;DHT22;16707;48.106;11.548;2023-08-30T00:47:47;12.60;99.90
29813;DHT22;16707;48.106;11.548;2023-08-30T00:50:14;12.60;99.90
29813;DHT22;16707;48.106;11.548;2023-08-30T00:52:42;12.60;99.90
29813;DHT22;16707;48.106;11.548;2023-08-30T00:55:10;12.60;99.90
29813;DHT22;16707;48.106;11.548;2023-08-30T00:57:37;12.60;99.90
29813;DHT22;16707;48.106;11.548;2023-08-30T01:00:07;12.60;99.90
29813;DHT22;16707;48.106;11.548;2023-08-30T01:02:36;12.60;99.90
29813;DHT22;16707;48.106;11.548;2023-08-30T01:05:03;12.60;99.90
29813;DHT22;16707;48.106;11.548;2023-08-30T01:07:31;12.60;99.90
29813;DHT22;16707;48.106;11.548;2023-08-30T01:09:58;12.50;99.90
29813;DHT22;16707;48.106;11.548;2023-08-30T01:12:31;12.50;99.90
29813;DHT22;16707;48.106;11.548;2023-08-30T01:15:07;12.60;99.90
29813;DHT22;16707;48.106;11.548;2023-08-30T01:17:39;12.60;99.90
29813;DHT22;16707;48.106;11.548;2023-08-30T01:20:07;12.60;99.90
29813;DHT22;16707;48.106;11.548;2023-08-30T01:22:45;12.60;99.90
29813;DHT22;16707;48.106;11.548;2023-08-30T01:25:27;12.60;99.90
29813;DHT22;16707;48.106;11.548;2023-08-30T01:28:04;12.60;99.90
29813;DHT22;16707;48.106;11.548;2023-08-30T01:30:32;12.60;99.90
29813;DHT22;16707;48.106;11.548;2023-08-30T01:33:00;12.70;99.90
29813;DHT22;16707;48.106;11.548;2023-08-30T01:35:29;12.60;99.90
29813;DHT22;16707;48.106;11.548;2023-08-30T01:37:58;12.70;99.90
29813;DHT22;16707;48.106;11.548;2023-08-30T01:40:27;12.60;99.90
29813;DHT22;16707;48.106;11.548;2023-08-30T01:42:55;12.60;99.90
29813;DHT22;16707;48.106;11.548;2023-08-30T01:45:26;12.60;99.90
29813;DHT22;16707;48.106;11.548;2023-08-30T01:47:54;12.70;99.90
29813;DHT22;16707;48.106;11.548;2023-08-30T01:50:22;12.70;99.90
29813;DHT22;16707;48.106;11.548;2023-08-30T01:52:50;12.60;99.90
29813;DHT22;16707;48.106;11.548;2023-08-30T01:55:20;12.60;99.90
29813;DHT22;16707;48.106;11.548;2023-08-30T01:57:48;12.60;99.90
29813;DHT22;16707;48.106;11.548;2023-08-30T02:00:15;12.60;99.90
29813;DHT22;16707;48.106;11.548;2023-08-30T02:02:45;12.60;99.90
29813;DHT22;16707;48.106;11.548;2023-08-30T02:05:12;12.60;99.90
29813;DHT22;16707;48.106;11.548;2023-08-30T02:07:44;12.60;99.90
29813;DHT22;16707;48.106;11.548;2023-08-30T02:10:17;12.60;99.90
29813;DHT22;16707;48.106;11.548;2023-08-30T02:12:50;12.60;99.90
29813;DHT22;16707;48.106;11.548;2023-08-30T02:15:20;12.60;99.90
29813;DHT22;16707;48.106;11.548;2023-08-30T02:17:49;12.60;99.90
29813;DHT22;16707;48.106;11.548;2023-08-30T02:20:17;12.70;99.90
29813;DHT22;16707;48.106;11.548;2023-08-30T02:22:44;12.70;99.90
29813;DHT22;16707;48.106;11.548;2023-08-30T02:25:11;12.70;99.90
29813;DHT22;16707;48.106;11.548;2023-08-30T02:27:38;12.70;99.90
29813;DHT22;16707;48.106;11.548;2023-08-30T02:30:06;12.70;99.90
29813;DHT22;16707;48.106;11.548;2023-08-30T02:32:34;12.70;99.90
29813;DHT22;16707;48.106;11.548;2023-08-30T02:35:02;12.70;99.90
29813;DHT22;16707;48.106;11.548;2023-08-30T02:37:29;12.70;99.90
29813;DHT22;16707;48.106;11.548;2023-08-30T02:39:56;12.70;99.90
29813;DHT22;16707;48.106;11.548;2023-08-30T02:42:23;12.70;99.90
29813;DHT22;16707;48.106;11.548;2023-08-30T02:44:51;12.80;99.90
29813;DHT22;16707;48.106;11.548;2023-08-30T02:47:18;12.80;99.90
29813;DHT22;16707;48.106;11.548;2023-08-30T02:49:45;12.80;99.90
29813;DHT22;16707;48.106;11.548;2023-08-30T02:52:14;12.80;99.90
29813;DHT22;16707;48.106;11.548;2023-08-30T02:54:41;12.80;99.90
29813;DHT22;16707;48.106;11.548;2023-08-30T02:57:08;12.80;99.90
29813;DHT22;16707;48.106;11.548;2023-08-30T02:59:35;12.80;99.90
29813;DHT22;16707;48.106;11.548;2023-08-30T03:02:02;12.80;99.90
29813;DHT22;16707;48.106;11.548;2023-08-30T03:04:29;12.80;99.90
29813;DHT22;16707;48.106;11.548;2023-08-30T03:06:56;12.80;99.90
29813;DHT22;16707;48.106;11.548;2023-08-30T03:09:24;12.80;99.90
29813;DHT22;16707;48.106;11.548;2023-08-30T03:11:51;12.80;99.90
29813;DHT22;16707;48.106;11.548;2023-08-30T03:14:18;12.80;99.90
29813;DHT22;16707;48.106;11.548;2023-08-30T03:16:45;12.80;99.90
29813;DHT22;16707;48.106;11.548;2023-08-30T03:19:12;12.80;99.90
29813;DHT22;16707;48.106;11.548;2023-08-30T03:21:42;12.90;99.90
29813;DHT22;16707;48.106;11.548;2023-08-30T03:24:09;12.80;99.90
29813;DHT22;16707;48.106;11.548;2023-08-30T03:26:38;12.80;99.90
29813;DHT22;16707;48.106;11.548;2023-08-30T03:29:06;12.80;99.90
29813;DHT22;16707;48.106;11.548;2023-08-30T03:31:33;12.80;99.90
29813;DHT22;16707;48.106;11.548;2023-08-30T03:34:00;12.80;99.90
29813;DHT22;16707;48.106;11.548;2023-08-30T03:36:28;12.80;99.90
29813;DHT22;16707;48.106;11.548;2023-08-30T03:38:55;12.80;99.90
29813;DHT22;16707;48.106;11.548;2023-08-30T03:41:22;12.80;99.90
29813;DHT22;16707;48.106;11.548;2023-08-30T03:43:50;12.90;99.90
29813;DHT22;16707;48.106;11.548;2023-08-30T03:46:17;12.80;99.90
29813;DHT22;16707;48.106;11.548;2023-08-30T03:48:44;12.90;99.90
29813;DHT22;16707;48.106;11.548;2023-08-30T03:51:11;12.90;99.90
29813;DHT22;16707;48.106;11.548;2023-08-30T03:53:38;12.90;99.90
29813;DHT22;16707;48.106;11.548;2023-08-30T03:56:05;12.80;99.90
29813;DHT22;16707;48.106;11.548;2023-08-30T03:58:33;12.90;99.90
29813;DHT22;16707;48.106;11.548;2023-08-30T04:01:01;12.90;99.90
29813;DHT22;16707;48.106;11.548;2023-08-30T04:03:28;12.90;99.90
29813;DHT22;16707;48.106;11.548;2023-08-30T04:05:55;12.90;99.90
29813;DHT22;16707;48.106;11.548;2023-08-30T04:08:23;12.80;99.90
29813;DHT22;16707;48.106;11.548;2023-08-30T04:10:52;12.90;99.90
29813;DHT22;16707;48.106;11.548;2023-08-30T04:13:19;12.90;99.90
29813;DHT22;16707;48.106;11.548;2023-08-30T04:15:46;12.80;99.90
29813;DHT22;16707;48.106;11.548;2023-08-30T04:18:14;12.80;99.90
29813;DHT22;16707;48.106;11.548;2023-08-30T04:20:44;12.80;99.90
29813;DHT22;16707;48.106;11.548;2023-08-30T04:23:11;12.80;99.90
29813;DHT22;16707;48.106;11.548;2023-08-30T04:25:38;12.80;99.90
29813;DHT22;16707;48.106;11.548;2023-08-30T04:28:05;12.80;99.90
29813;DHT22;16707;48.106;11.548;2023-08-30T04:30:32;12.80;99.90
29813;DHT22;16707;48.106;11.548;2023-08-30T04:33:00;12.90;99.90
29813;DHT22;16707;48.106;11.548;2023-08-30T04:35:30;12.80;99.90
29813;DHT22;16707;48.106;11.548;2023-08-30T04:37:58;12.80;99.90
29813;DHT22;16707;48.106;11.548;2023-08-30T04:40:25;12.80;99.90
29813;DHT22;16707;48.106;11.548;2023-08-30T04:42:52;12.90;99.90
29813;DHT22;16707;48.106;11.548;2023-08-30T04:45:19;12.90;99.90
29813;DHT22;16707;48.106;11.548;2023-08-30T04:47:46;12.90;99.90
29813;DHT22;16707;48.106;11.548;2023-08-30T04:50:13;13.00;99.90
29813;DHT22;16707;48.106;11.548;2023-08-30T04:52:42;13.00;99.90
29813;DHT22;16707;48.106;11.548;2023-08-30T04:55:09;13.00;99.90
29813;DHT22;16707;48.106;11.548;2023-08-30T04:57:36;12.90;99.90
29813;DHT22;16707;48.106;11.548;2023-08-30T05:00:05;12.90;99.90
29813;DHT22;16707;48.106;11.548;2023-08-30T05:02:34;12.90;99.90
29813;DHT22;16707;48.106;11.548;2023-08-30T05:05:03;12.90;99.90
29813;DHT22;16707;48.106;11.548;2023-08-30T05:07:30;12.90;99.90
29813;DHT22;16707;48.106;11.548;2023-08-30T05:09:58;12.90;99.90
29813;DHT22;16707;48.106;11.548;2023-08-30T05:12:25;13.00;99.90
29813;DHT22;16707;48.106;11.548;2023-08-30T05:14:52;13.00;99.90
29813;DHT22;16707;48.106;11.548;2023-08-30T05:17:19;13.00;99.90
29813;DHT22;16707;48.106;11.548;2023-08-30T05:19:46;13.00;99.90
29813;DHT22;16707;48.106;11.548;2023-08-30T05:22:13;13.00;99.90
29813;DHT22;16707;48.106;11.548;2023-08-30T05:24:40;13.10;99.90
29813;DHT22;16707;48.106;11.548;2023-08-30T05:27:08;13.00;99.90
29813;DHT22;16707;48.106;11.548;2023-08-30T05:29:37;13.00;99.90
29813;DHT22;16707;48.106;11.548;2023-08-30T05:32:04;13.10;99.90
29813;DHT22;16707;48.106;11.548;2023-08-30T05:34:31;13.10;99.90
29813;DHT22;16707;48.106;11.548;2023-08-30T05:36:58;13.10;99.90
29813;DHT22;16707;48.106;11.548;2023-08-30T05:39:25;13.10;99.90
29813;DHT22;16707;48.106;11.548;2023-08-30T05:41:52;13.20;99.90
29813;DHT22;16707;48.106;11.548;2023-08-30T05:44:20;13.20;99.90
29813;DHT22;16707;48.106;11.548;2023-08-30T05:46:47;13.10;99.90
29813;DHT22;16707;48.106;11.548;2023-08-30T05:49:14;13.10;99.90
29813;DHT22;16707;48.106;11.548;2023-08-30T05:51:41;13.20;99.90
29813;DHT22;16707;48.106;11.548;2023-08-30T05:54:08;13.20;99.90
29813;DHT22;16707;48.106;11.548;2023-08-30T05:56:35;13.20;99.90
29813;DHT22;16707;48.106;11.548;2023-08-30T05:59:02;13.20;99.90
29813;DHT22;16707;48.106;11.548;2023-08-30T06:01:30;13.20;99.90
29813;DHT22;16707;48.106;11.548;2023-08-30T06:03:57;13.30;99.90
29813;DHT22;16707;48.106;11.548;2023-08-30T06:06:24;13.30;99.90
29813;DHT22;16707;48.106;11.548;2023-08-30T06:08:52;13.30;99.90
29813;DHT22;16707;48.106;11.548;2023-08-30T06:11:19;13.40;99.90
29813;DHT22;16707;48.106;11.548;2023-08-30T06:13:46;13.40;99.90
29813;DHT22;16707;48.106;11.548;2023-08-30T06:16:13;13.40;99.90
29813;DHT22;16707;48.106;11.548;2023-08-30T06:18:44;13.70;99.90
29813;DHT22;16707;48.106;11.548;2023-08-30T06:21:12;13.90;99.90
29813;DHT22;16707;48.106;11.548;2023-08-30T06:23:39;14.20;99.90
29813;DHT22;16707;48.106;11.548;2023-08-30T06:26:05;14.20;99.90
29813;DHT22;16707;48.106;11.548;2023-08-30T06:28:33;14.40;99.90
29813;DHT22;16707;48.106;11.548;2023-08-30T06:31:00;14.50;99.90
29813;DHT22;16707;48.106;11.548;2023-08-30T06:33:27;14.50;99.90
29813;DHT22;16707;48.106;11.548;2023-08-30T06:35:55;14.70;99.90
29813;DHT22;16707;48.106;11.548;2023-08-30T06:38:22;14.60;99.90
29813;DHT22;16707;48.106;11.548;2023-08-30T06:40:49;14.80;99.90
29813;DHT22;16707;48.106;11.548;2023-08-30T06:43:16;14.90;99.90
29813;DHT22;16707;48.106;11.548;2023-08-30T06:45:43;14.80;99.90
29813;DHT22;16707;48.106;11.548;2023-08-30T06:48:12;14.90;99.90
29813;DHT22;16707;48.106;11.548;2023-08-30T06:50:38;15.20;99.90
29813;DHT22;16707;48.106;11.548;2023-08-30T06:53:07;15.10;99.90
29813;DHT22;16707;48.106;11.548;2023-08-30T06:55:34;14.90;99.90
29813;DHT22;16707;48.106;11.548;2023-08-30T06:58:03;14.60;99.90
29813;DHT22;16707;48.106;11.548;2023-08-30T07:00:30;14.60;99.90
29813;DHT22;16707;48.106;11.548;2023-08-30T07:02:57;14.70;99.90
29813;DHT22;16707;48.106;11.548;2023-08-30T07:05:24;14.70;99.90
29813;DHT22;16707;48.106;11.548;2023-08-30T07:07:51;14.90;99.90
29813;DHT22;16707;48.106;11.548;2023-08-30T07:10:20;14.70;99.90
29813;DHT22;16707;48.106;11.548;2023-08-30T07:12:47;14.60;99.90
29813;DHT22;16707;48.106;11.548;2023-08-30T07:15:14;14.70;99.90
29813;DHT22;16707;48.106;11.548;2023-08-30T07:17:43;14.70;99.90
29813;DHT22;16707;48.106;11.548;2023-08-30T07:20:10;14.70;99.90
29813;DHT22;16707;48.106;11.548;2023-08-30T07:22:38;14.70;99.90
29813;DHT22;16707;48.106;11.548;2023-08-30T07:25:05;14.80;99.90
29813;DHT22;16707;48.106;11.548;2023-08-30T07:27:35;14.90;99.90
29813;DHT22;16707;48.106;11.548;2023-08-30T07:30:03;14.70;99.90
29813;DHT22;16707;48.106;11.548;2023-08-30T07:32:30;14.70;99.90
29813;DHT22;16707;48.106;11.548;2023-08-30T07:34:57;14.70;99.90
29813;DHT22;16707;48.106;11.548;2023-08-30T07:37:25;14.90;99.90
29813;DHT22;16707;48.106;11.548;2023-08-30T07:39:52;14.90;99.90
29813;DHT22;16707;48.106;11.548;2023-08-30T07:42:19;15.00;99.90
29813;DHT22;16707;48.106;11.548;2023-08-30T07:44:47;15.00;99.90
29813;DHT22;16707;48.106;11.548;2023-08-30T07:47:14;15.20;99.90
29813;DHT22;16707;48.106;11.548;2023-08-30T07:49:41;15.20;99.90
29813;DHT22;16707;48.106;11.548;2023-08-30T07:52:09;15.30;99.90
29813;DHT22;16707;48.106;11.548;2023-08-30T07:54:37;15.20;99.90
29813;DHT22;16707;48.106;11.548;2023-08-30T07:57:04;15.40;99.90
29813;DHT22;16707;48.106;11.548;2023-08-30T07:59:33;15.50;99.90
29813;DHT22;16707;48.106;11.548;2023-08-30T08:02:02;15.60;99.90
29813;DHT22;16707;48.106;11.548;2023-08-30T08:04:31;15.60;99.90
29813;DHT22;16707;48.106;11.548;2023-08-30T08:06:58;15.50;99.90
29813;DHT22;16707;48.106;11.548;2023-08-30T08:09:25;15.50;99.90
29813;DHT22;16707;48.106;11.548;2023-08-30T08:11:53;15.70;99.90
29813;DHT22;16707;48.106;11.548;2023-08-30T08:14:21;15.80;99.90
29813;DHT22;16707;48.106;11.548;2023-08-30T08:16:48;15.90;99.90
29813;DHT22;16707;48.106;11.548;2023-08-30T08:19:17;15.90;99.90
29813;DHT22;16707;48.106;11.548;2023-08-30T08:21:45;15.90;99.90
29813;DHT22;16707;48.106;11.548;2023-08-30T08:24:12;15.80;99.90
29813;DHT22;16707;48.106;11.548;2023-08-30T08:26:39;15.80;99.90
29813;DHT22;16707;48.106;11.548;2023-08-30T08:29:06;15.70;99.90
29813;DHT22;16707;48.106;11.548;2023-08-30T08:31:33;15.70;99.90
29813;DHT22;16707;48.106;11.548;2023-08-30T08:34:08;15.80;99.90
29813;DHT22;16707;48.106;11.548;2023-08-30T08:36:39;16.00;99.90
29813;DHT22;16707;48.106;11.548;2023-08-30T08:39:07;16.20;99.90
29813;DHT22;16707;48.106;11.548;2023-08-30T08:41:39;16.40;99.90
29813;DHT22;16707;48.106;11.548;2023-08-30T08:44:07;16.60;99.90
29813;DHT22;16707;48.106;11.548;2023-08-30T08:46:35;17.00;99.90
29813;DHT22;16707;48.106;11.548;2023-08-30T08:49:08;17.20;99.90
29813;DHT22;16707;48.106;11.548;2023-08-30T08:51:39;17.40;99.90
29813;DHT22;16707;48.106;11.548;2023-08-30T08:54:07;17.80;99.90
29813;DHT22;16707;48.106;11.548;2023-08-30T08:56:36;18.10;99.90
29813;DHT22;16707;48.106;11.548;2023-08-30T08:59:04;18.40;99.90
29813;DHT22;16707;48.106;11.548;2023-08-30T09:01:33;18.40;99.90
29813;DHT22;16707;48.106;11.548;2023-08-30T09:04:04;18.70;99.90
29813;DHT22;16707;48.106;11.548;2023-08-30T09:06:32;18.60;99.90
29813;DHT22;16707;48.106;11.548;2023-08-30T09:09:01;18.90;99.90
29813;DHT22;16707;48.106;11.548;2023-08-30T09:11:30;19.00;99.90
29813;DHT22;16707;48.106;11.548;2023-08-30T09:13:57;19.50;99.90
29813;DHT22;16707;48.106;11.548;2023-08-30T09:16:24;19.20;99.90
29813;DHT22;16707;48.106;11.548;2023-08-30T09:18:58;19.50;99.90
29813;DHT22;16707;48.106;11.548;2023-08-30T09:21:25;19.80;99.90
29813;DHT22;16707;48.106;11.548;2023-08-30T09:24:01;20.10;99.90
29813;DHT22;16707;48.106;11.548;2023-08-30T09:26:29;20.60;99.90
29813;DHT22;16707;48.106;11.548;2023-08-30T09:29:01;20.80;99.90
29813;DHT22;16707;48.106;11.548;2023-08-30T09:31:33;20.80;99.90
29813;DHT22;16707;48.106;11.548;2023-08-30T09:34:00;21.40;99.90
29813;DHT22;16707;48.106;11.548;2023-08-30T09:36:33;22.00;99.90
29813;DHT22;16707;48.106;11.548;2023-08-30T09:39:05;22.20;97.70
29813;DHT22;16707;48.106;11.548;2023-08-30T09:41:32;22.00;97.60
29813;DHT22;16707;48.106;11.548;2023-08-30T09:43:59;20.90;99.90
29813;DHT22;16707;48.106;11.548;2023-08-30T09:46:26;20.30;99.90
29813;DHT22;16707;48.106;11.548;2023-08-30T09:48:53;19.90;99.90
29813;DHT22;16707;48.106;11.548;2023-08-30T09:51:24;19.70;99.90
29813;DHT22;16707;48.106;11.548;2023-08-30T09:53:58;19.70;99.90
29813;DHT22;16707;48.106;11.548;2023-08-30T09:56:31;19.80;99.90
29813;DHT22;16707;48.106;11.548;2023-08-30T09:58:59;20.40;99.00
29813;DHT22;16707;48.106;11.548;2023-08-30T10:01:27;20.60;99.70
29813;DHT22;16707;48.106;11.548;2023-08-30T10:03:55;20.80;99.90
29813;DHT22;16707;48.106;11.548;2023-08-30T10:06:24;20.50;99.90
29813;DHT22;16707;48.106;11.548;2023-08-30T10:08:52;20.40;99.40
29813;DHT22;16707;48.106;11.548;2023-08-30T10:11:21;20.20;99.50
29813;DHT22;16707;48.106;11.548;2023-08-30T10:13:51;20.40;98.90
29813;DHT22;16707;48.106;11.548;2023-08-30T10:16:19;20.30;99.70
29813;DHT22;16707;48.106;11.548;2023-08-30T10:18:47;20.10;99.90
29813;DHT22;16707;48.106;11.548;2023-08-30T10:21:18;19.90;98.70
29813;DHT22;16707;48.106;11.548;2023-08-30T10:23:49;20.20;98.10
29813;DHT22;16707;48.106;11.548;2023-08-30T10:26:22;20.00;97.60
29813;DHT22;16707;48.106;11.548;2023-08-30T10:28:52;19.80;96.40
29813;DHT22;16707;48.106;11.548;2023-08-30T10:31:21;19.60;97.50
29813;DHT22;16707;48.106;11.548;2023-08-30T10:33:48;19.50;97.50
29813;DHT22;16707;48.106;11.548;2023-08-30T10:36:21;19.40;99.90
29813;DHT22;16707;48.106;11.548;2023-08-30T10:38:49;19.50;99.70
29813;DHT22;16707;48.106;11.548;2023-08-30T10:41:20;19.70;99.80
29813;DHT22;16707;48.106;11.548;2023-08-30T10:43:52;20.30;99.00
29813;DHT22;16707;48.106;11.548;2023-08-30T10:46:29;20.50;97.60
29813;DHT22;16707;48.106;11.548;2023-08-30T10:49:08;20.50;98.50
29813;DHT22;16707;48.106;11.548;2023-08-30T10:51:37;20.40;99.80
29813;DHT22;16707;48.106;11.548;2023-08-30T10:54:12;21.00;95.40
29813;DHT22;16707;48.106;11.548;2023-08-30T10:56:46;21.30;94.90
29813;DHT22;16707;48.106;11.548;2023-08-30T10:59:19;21.70;93.20
29813;DHT22;16707;48.106;11.548;2023-08-30T11:01:49;21.40;93.40
29813;DHT22;16707;48.106;11.548;2023-08-30T11:04:16;21.40;94.20
29813;DHT22;16707;48.106;11.548;2023-08-30T11:06:44;21.70;94.70
29813;DHT22;16707;48.106;11.548;2023-08-30T11:09:16;21.80;94.00
29813;DHT22;16707;48.106;11.548;2023-08-30T11:11:44;21.80;92.30
29813;DHT22;16707;48.106;11.548;2023-08-30T11:14:12;22.30;91.30
29813;DHT22;16707;48.106;11.548;2023-08-30T11:16:40;21.90;90.50
29813;DHT22;16707;48.106;11.548;2023-08-30T11:19:09;21.50;90.30
29813;DHT22;16707;48.106;11.548;2023-08-30T11:21:38;21.50;90.10
29813;DHT22;16707;48.106;11.548;2023-08-30T11:24:06;21.80;91.80
29813;DHT22;16707;48.106;11.548;2023-08-30T11:26:34;21.70;93.00
29813;DHT22;16707;48.106;11.548;2023-08-30T11:29:04;22.00;92.50
29813;DHT22;16707;48.106;11.548;2023-08-30T11:31:32;22.00;91.20
29813;DHT22;16707;48.106;11.548;2023-08-30T11:34:00;22.20;91.90
29813;DHT22;16707;48.106;11.548;2023-08-30T11:36:29;22.40;90.00
29813;DHT22;16707;48.106;11.548;2023-08-30T11:38:56;22.00;91.10
29813;DHT22;16707;48.106;11.548;2023-08-30T11:41:24;22.10;92.30
29813;DHT22;16707;48.106;11.548;2023-08-30T11:43:52;21.80;92.10
29813;DHT22;16707;48.106;11.548;2023-08-30T11:46:20;21.50;92.60
29813;DHT22;16707;48.106;11.548;2023-08-30T11:48:49;21.40;93.00
29813;DHT22;16707;48.106;11.548;2023-08-30T11:51:19;21.10;93.60
29813;DHT22;16707;48.106;11.548;2023-08-30T11:53:47;21.10;95.30
29813;DHT22;16707;48.106;11.548;2023-08-30T11:56:15;21.20;91.60
29813;DHT22;16707;48.106;11.548;2023-08-30T11:58:42;21.10;91.20
29813;DHT22;16707;48.106;11.548;2023-08-30T12:01:10;21.20;91.70
29813;DHT22;16707;48.106;11.548;2023-08-30T12:03:38;22.20;90.20
29813;DHT22;16707;48.106;11.548;2023-08-30T12:06:09;22.50;90.40
29813;DHT22;16707;48.106;11.548;2023-08-30T12:08:38;22.90;87.50
29813;DHT22;16707;48.106;11.548;2023-08-30T12:11:05;22.20;86.20
29813;DHT22;16707;48.106;11.548;2023-08-30T12:13:33;21.70;87.00
29813;DHT22;16707;48.106;11.548;2023-08-30T12:16:01;21.50;91.00
29813;DHT22;16707;48.106;11.548;2023-08-30T12:18:31;21.20;90.90
29813;DHT22;16707;48.106;11.548;2023-08-30T12:20:59;20.70;92.20
29813;DHT22;16707;48.106;11.548;2023-08-30T12:23:29;20.40;92.90
29813;DHT22;16707;48.106;11.548;2023-08-30T12:26:02;20.20;93.60
29813;DHT22;16707;48.106;11.548;2023-08-30T12:28:31;20.10;93.50
29813;DHT22;16707;48.106;11.548;2023-08-30T12:30:59;20.00;94.80
29813;DHT22;16707;48.106;11.548;2023-08-30T12:33:26;19.80;94.40
29813;DHT22;16707;48.106;11.548;2023-08-30T12:35:54;19.90;95.90
29813;DHT22;16707;48.106;11.548;2023-08-30T12:38:21;19.90;96.30
29813;DHT22;16707;48.106;11.548;2023-08-30T12:40:49;19.90;94.00
29813;DHT22;16707;48.106;11.548;2023-08-30T12:43:19;20.10;93.40
29813;DHT22;16707;48.106;11.548;2023-08-30T12:45:47;20.00;93.10
29813;DHT22;16707;48.106;11.548;2023-08-30T12:48:16;20.00;92.60
29813;DHT22;16707;48.106;11.548;2023-08-30T12:50:45;20.10;93.70
29813;DHT22;16707;48.106;11.548;2023-08-30T12:53:12;20.10;95.30
29813;DHT22;16707;48.106;11.548;2023-08-30T12:55:40;20.30;92.50
29813;DHT22;16707;48.106;11.548;2023-08-30T12:58:07;20.40;91.10
29813;DHT22;16707;48.106;11.548;2023-08-30T13:00:36;20.50;89.10
29813;DHT22;16707;48.106;11.548;2023-08-30T13:03:03;20.60;87.70
29813;DHT22;16707;48.106;11.548;2023-08-30T13:05:30;20.70;86.50
29813;DHT22;16707;48.106;11.548;2023-08-30T13:07:58;20.50;90.60
29813;DHT22;16707;48.106;11.548;2023-08-30T13:10:25;20.20;91.20
29813;DHT22;16707;48.106;11.548;2023-08-30T13:12:52;20.30;87.10
29813;DHT22;16707;48.106;11.548;2023-08-30T13:15:19;20.10;91.70
29813;DHT22;16707;48.106;11.548;2023-08-30T13:17:47;20.40;92.00
29813;DHT22;16707;48.106;11.548;2023-08-30T13:20:14;20.60;90.20
29813;DHT22;16707;48.106;11.548;2023-08-30T13:22:41;20.40;92.70
29813;DHT22;16707;48.106;11.548;2023-08-30T13:25:08;20.50;91.80
29813;DHT22;16707;48.106;11.548;2023-08-30T13:27:36;20.30;92.00
29813;DHT22;16707;48.106;11.548;2023-08-30T13:30:03;20.30;88.70
29813;DHT22;16707;48.106;11.548;2023-08-30T13:32:31;20.30;88.20
29813;DHT22;16707;48.106;11.548;2023-08-30T13:35:00;20.10;90.50
29813;DHT22;16707;48.106;11.548;2023-08-30T13:37:27;20.10;91.10
29813;DHT22;16707;48.106;11.548;2023-08-30T13:39:54;20.10;90.70
29813;DHT22;16707;48.106;11.548;2023-08-30T13:42:21;20.00;90.70
29813;DHT22;16707;48.106;11.548;2023-08-30T13:44:50;19.50;93.40
29813;DHT22;16707;48.106;11.548;2023-08-30T13:47:17;19.10;94.60
29813;DHT22;16707;48.106;11.548;2023-08-30T13:49:46;18.90;95.70
29813;DHT22;16707;48.106;11.548;2023-08-30T13:52:14;18.70;96.00
29813;DHT22;16707;48.106;11.548;2023-08-30T13:54:41;18.40;97.00
29813;DHT22;16707;48.106;11.548;2023-08-30T13:57:08;18.30;98.50
29813;DHT22;16707;48.106;11.548;2023-08-30T13:59:35;18.20;99.60
29813;DHT22;16707;48.106;11.548;2023-08-30T14:02:02;17.90;99.90
29813;DHT22;16707;48.106;11.548;2023-08-30T14:04:29;17.70;99.90
29813;DHT22;16707;48.106;11.548;2023-08-30T14:06:58;17.60;99.90
29813;DHT22;16707;48.106;11.548;2023-08-30T14:09:27;17.30;99.90
29813;DHT22;16707;48.106;11.548;2023-08-30T14:11:54;17.30;99.90
29813;DHT22;16707;48.106;11.548;2023-08-30T14:14:21;17.50;99.90
29813;DHT22;16707;48.106;11.548;2023-08-30T14:16:48;17.50;99.90
29813;DHT22;16707;48.106;11.548;2023-08-30T14:19:16;17.20;99.90
29813;DHT22;16707;48.106;11.548;2023-08-30T14:21:43;17.30;99.90
29813;DHT22;16707;48.106;11.548;2023-08-30T14:24:10;17.50;99.90
29813;DHT22;16707;48.106;11.548;2023-08-30T14:26:38;17.90;99.90
29813;DHT22;16707;48.106;11.548;2023-08-30T14:29:05;18.20;99.90
29813;DHT22;16707;48.106;11.548;2023-08-30T14:31:32;17.90;99.90
29813;DHT22;16707;48.106;11.548;2023-08-30T14:33:59;17.70;99.90
29813;DHT22;16707;48.106;11.548;2023-08-30T14:36:26;18.20;99.90
29813;DHT22;16707;48.106;11.548;2023-08-30T14:38:53;18.50;99.90
29813;DHT22;16707;48.106;11.548;2023-08-30T14:41:20;18.70;99.90
29813;DHT22;16707;48.106;11.548;2023-08-30T14:43:48;18.90;99.90
29813;DHT22;16707;48.106;11.548;2023-08-30T14:46:15;19.20;99.90
29813;DHT22;16707;48.106;11.548;2023-08-30T14:48:45;19.20;99.90
29813;DHT22;16707;48.106;11.548;2023-08-30T14:51:12;19.20;99.90
29813;DHT22;16707;48.106;11.548;2023-08-30T14:53:39;19.40;99.90
29813;DHT22;16707;48.106;11.548;2023-08-30T14:56:06;19.50;99.90
29813;DHT22;16707;48.106;11.548;2023-08-30T14:58:33;19.30;99.90
29813;DHT22;16707;48.106;11.548;2023-08-30T15:01:02;19.00;99.90
29813;DHT22;16707;48.106;11.548;2023-08-30T15:03:29;19.10;99.90
29813;DHT22;16707;48.106;11.548;2023-08-30T15:05:57;19.20;99.90
29813;DHT22;16707;48.106;11.548;2023-08-30T15:08:25;19.10;99.90
29813;DHT22;16707;48.106;11.548;2023-08-30T15:10:51;19.10;99.90
29813;DHT22;16707;48.106;11.548;2023-08-30T15:13:19;18.90;99.90
29813;DHT22;16707;48.106;11.548;2023-08-30T15:15:46;18.90;99.90
29813;DHT22;16707;48.106;11.548;2023-08-30T15:18:15;18.90;99.90
29813;DHT22;16707;48.106;11.548;2023-08-30T15:20:42;18.80;99.90